Flight Track Log - Related Links

Times and Time Zones

All times are in EDT time to prevent confusion due to time zone crossing. See the JUS327 flight status page for this flight to view local times or setup timezone preferences in your user account.

Time Position Orientation Groundspeed Altitude Reporting Facility
EDT Latitude Longitude Course Direction KTS MPH feet Rate Location/Type
Sun 07:20:14 PM 27.5169 -99.4631 22° Northeast 169 194 1,500  Level Houston Center
Sun 07:21:16 PM 27.4994 -99.4164 113° Southeast 206 237 3,000 1,610 Climbing Houston Center
Sun 07:22:17 PM 27.5575 -99.3886 23° Northeast 224 258 4,800 1,902 Climbing Houston Center
Sun 07:23:19 PM 27.6317 -99.3556 22° Northeast 255 293 6,900 2,371 Climbing Houston Center
Sun 07:24:00 PM 28.1736 -99.1507 22° Northeast  Level FlightAware Approximate
Sun 07:24:21 PM 27.7000 -99.3011 35° Northeast 285 328 9,700  Level Houston Center
Sun 07:25:00 PM 28.2806 -99.1013 22° Northeast  Level FlightAware Approximate
Sun 07:25:22 PM 27.7753 -99.2514 30° Northeast 298 343 11,000  Level Houston Center
Sun 07:26:24 PM 27.8672 -99.1928 29° Northeast 348 400 12,300 1,645 Climbing Houston Center
Sun 07:27:26 PM 27.9572 -99.1222 35° Northeast 387 445 14,400 1,984 Climbing Houston Center
Sun 07:28:28 PM 28.0719 -99.0447 31° Northeast 399 459 16,400 1,902 Climbing Houston Center
Sun 07:29:29 PM 28.1692 -98.9761 32° Northeast 408 470 18,300 1,707 Climbing Houston Center
Sun 07:30:31 PM 28.2700 -98.9086 31° Northeast 417 480 19,900 1,403 Climbing Houston Center
Sun 07:31:33 PM 28.3714 -98.8419 30° Northeast 422 486 21,200 1,220 Climbing Houston Center
Sun 07:32:34 PM 28.4739 -98.7642 34° Northeast 436 502 22,400 1,220 Climbing Houston Center
Sun 07:33:36 PM 28.5819 -98.6978 28° Northeast 442 509 23,700 1,258 Climbing Houston Center
Sun 07:34:38 PM 28.7011 -98.6083 33° Northeast 450 518 25,000 1,161 Climbing Houston Center
Sun 07:35:40 PM 28.8208 -98.5311 29° Northeast 460 529 26,100 1,024 Climbing Houston Center
Sun 07:36:41 PM 28.9306 -98.4539 32° Northeast 464 534 27,100 976 Climbing Houston Center
Sun 07:37:43 PM 29.0403 -98.3714 33° Northeast 472 543 28,100 968 Climbing Houston Center
Sun 07:38:45 PM 29.1633 -98.2922 29° Northeast 473 544 29,100 1,210 Climbing Houston Center
Sun 07:39:47 PM 29.2725 -98.2083 34° Northeast 473 544 30,600 1,415 Climbing Houston Center
Sun 07:40:48 PM 29.3922 -98.1306 30° Northeast 464 534 32,000 1,171 Climbing Houston Center
Sun 07:41:50 PM 29.5003 -98.0519 32° Northeast 464 534 33,000 1,161 Climbing Houston Center
Sun 07:42:52 PM 29.6136 -97.9653 34° Northeast 457 526 34,400 968 Climbing Houston Center
Sun 07:43:54 PM 29.7236 -97.8950 29° Northeast 453 521 35,000 293 Climbing Houston Center
Sun 07:44:55 PM 29.8319 -97.8111 34° Northeast 467 537 35,000  Level Houston Center
Sun 07:45:58 PM 29.9517 -97.7281 31° Northeast 468 539 35,000  Level Houston Center
Sun 07:46:59 PM 30.0628 -97.6533 30° Northeast 467 537 35,000  Level Houston Center
Sun 07:48:01 PM 30.1575 -97.5739 36° Northeast 471 542 35,000  Level Houston Center
Sun 07:49:03 PM 30.2861 -97.4853 31° Northeast 456 525 35,000 -49 Level Houston Center
Sun 07:50:04 PM 30.3950 -97.4053 32° Northeast 459 528 34,900  Descending Houston Center
Sun 07:51:07 PM 30.5017 -97.3228 34° Northeast 458 527 35,000 48 Climbing Houston Center
Sun 07:52:08 PM 30.6139 -97.2508 29° Northeast 457 526 35,000  Level Houston Center
Sun 07:53:10 PM 30.7175 -97.1661 35° Northeast 457 526 35,000  Level Houston Center
Sun 07:54:12 PM 30.8258 -97.0892 31° Northeast 462 532 35,000  Level Houston Center
Sun 07:55:14 PM 30.9514 -96.9983 32° Northeast 461 531 35,000  Level Houston Center
Sun 07:56:16 PM 31.0567 -96.9169 34° Northeast 461 531 35,000  Level Houston Center
Sun 07:57:18 PM 31.1669 -96.8436 30° Northeast 454 522 35,000  Level Houston Center
Sun 07:58:19 PM 31.2725 -96.7589 34° Northeast 458 527 35,000  Level Houston Center
Sun 07:59:21 PM 31.3822 -96.6778 32° Northeast 462 532 35,000  Level Houston Center
Sun 08:00:23 PM 31.4933 -96.6039 30° Northeast 457 526 35,000  Level Houston Center
Sun 08:01:25 PM 31.5986 -96.5144 36° Northeast 464 534 35,000  Level Houston Center
Sun 08:02:15 PM 31.6939 -96.4464 31° Northeast 457 526 35,000  Level Fort Worth Center
Sun 08:03:15 PM 31.8122 -96.3597 32° Northeast 452 520 35,000  Level Fort Worth Center
Sun 08:04:15 PM 31.9200 -96.2728 34° Northeast 460 529 35,000  Level Fort Worth Center
Sun 08:05:15 PM 32.0281 -96.1956 31° Northeast 460 529 35,000  Level Fort Worth Center
Sun 08:06:15 PM 32.1378 -96.1081 34° Northeast 465 535 35,000  Level Fort Worth Center
Sun 08:07:15 PM 32.2475 -96.0281 32° Northeast 460 529 35,000  Level Fort Worth Center
Sun 08:08:15 PM 32.3572 -95.9500 31° Northeast 460 529 35,000  Level Fort Worth Center
Sun 08:09:15 PM 32.4606 -95.8622 36° Northeast 452 520 35,000  Level Fort Worth Center
Sun 08:10:15 PM 32.5722 -95.7839 31° Northeast 457 526 35,000  Level Fort Worth Center
Sun 08:11:15 PM 32.6756 -95.7006 34° Northeast 450 518 35,000  Level Fort Worth Center
Sun 08:12:16 PM 32.7831 -95.6144 34° Northeast 455 524 35,000  Level Fort Worth Center
Sun 08:13:15 PM 32.8906 -95.5406 30° Northeast 444 511 35,000  Level Fort Worth Center
Sun 08:14:15 PM 32.9978 -95.4517 35° Northeast 449 517 35,000  Level Fort Worth Center
Sun 08:15:15 PM 33.1008 -95.3725 33° Northeast 454 522 35,000  Level Fort Worth Center
Sun 08:16:15 PM 33.2100 -95.2956 31° Northeast 454 522 35,000  Level Fort Worth Center
Sun 08:17:15 PM 33.3128 -95.2036 37° Northeast 454 522 35,000  Level Fort Worth Center
Sun 08:18:15 PM 33.4242 -95.1261 30° Northeast 454 522 35,000  Level Fort Worth Center
Sun 08:19:15 PM 33.5311 -95.0436 33° Northeast 454 522 35,000  Level Fort Worth Center
Sun 08:20:15 PM 33.6358 -94.9511 36° Northeast 454 522 35,000  Level Fort Worth Center
Sun 08:21:15 PM 33.7450 -94.8756 30° Northeast 459 528 35,000  Level Fort Worth Center
Sun 08:22:15 PM 33.8517 -94.7900 34° Northeast 453 521 35,000  Level Fort Worth Center
Sun 08:23:15 PM 33.9603 -94.6967 35° Northeast 460 529 35,000  Level Fort Worth Center
Sun 08:25:20 PM 34.1678 -94.5319 33° Northeast 460 529 35,000  Level Memphis Center
Sun 08:26:20 PM 34.2769 -94.4467 33° Northeast 460 529 35,000  Level Memphis Center
Sun 08:27:20 PM 34.3839 -94.3661 32° Northeast 454 522 35,000  Level Memphis Center
Sun 08:28:20 PM 34.4889 -94.2753 35° Northeast 449 517 35,000  Level Memphis Center
Sun 08:29:20 PM 34.6086 -94.1825 33° Northeast 456 525 35,000  Level Memphis Center
Sun 08:30:20 PM 34.7117 -94.0936 35° Northeast 456 525 35,000  Level Memphis Center
Sun 08:31:20 PM 34.8206 -94.0047 34° Northeast 456 525 35,000  Level Memphis Center
Sun 08:32:20 PM 34.9211 -93.9181 35° Northeast 456 525 35,000  Level Memphis Center
Sun 08:33:20 PM 35.0300 -93.8314 33° Northeast 451 519 35,000  Level Memphis Center
Sun 08:34:20 PM 35.1367 -93.7417 35° Northeast 456 525 35,000  Level Memphis Center
Sun 08:35:20 PM 35.2431 -93.6622 31° Northeast 456 525 35,000  Level Memphis Center
Sun 08:36:20 PM 35.3458 -93.5669 37° Northeast 456 525 35,000  Level Memphis Center
Sun 08:37:20 PM 35.4503 -93.4717 37° Northeast 461 531 35,000  Level Memphis Center
Sun 08:38:20 PM 35.5567 -93.3861 33° Northeast 461 531 35,000  Level Memphis Center
Sun 08:39:20 PM 35.6458 -93.3308 27° Northeast 454 522 35,000  Level Memphis Center
Sun 08:40:20 PM 35.7589 -93.2169 39° Northeast 454 522 35,000  Level Memphis Center
Sun 08:41:20 PM 35.8650 -93.1336 32° Northeast 459 528 35,000  Level Memphis Center
Sun 08:42:20 PM 35.9731 -93.0528 31° Northeast 453 521 35,000  Level Memphis Center
Sun 08:43:20 PM 36.0775 -92.9533 38° Northeast 453 521 35,000  Level Memphis Center
Sun 08:44:20 PM 36.1856 -92.8667 33° Northeast 458 527 35,000  Level Memphis Center
Sun 08:46:14 PM 36.3917 -92.6844 35° Northeast 470 541 35,000  Level Kansas City Center
Sun 08:47:16 PM 36.5003 -92.5978 33° Northeast 468 539 35,000  Level Kansas City Center
Sun 08:48:16 PM 36.6008 -92.5142 34° Northeast 464 534 35,000  Level Kansas City Center
Sun 08:49:20 PM 36.7056 -92.4100 39° Northeast 472 543 35,000  Level Kansas City Center
Sun 08:50:21 PM 36.8381 -92.3075 32° Northeast 469 540 35,000  Level Kansas City Center
Sun 08:51:22 PM 36.9444 -92.2117 36° Northeast 468 539 35,000  Level Kansas City Center
Sun 08:52:23 PM 37.0514 -92.1111 37° Northeast 476 548 35,000  Level Kansas City Center
Sun 08:53:24 PM 37.1614 -92.0264 32° Northeast 467 537 35,000  Level Kansas City Center
Sun 08:54:28 PM 37.2675 -91.9269 37° Northeast 474 545 35,000  Level Kansas City Center
Sun 08:55:29 PM 37.3756 -91.8294 36° Northeast 479 551 35,000  Level Kansas City Center
Sun 08:56:30 PM 37.4864 -91.7414 32° Northeast 475 547 35,000  Level Kansas City Center
Sun 08:57:32 PM 37.6103 -91.6172 38° Northeast 475 547 35,000  Level Kansas City Center
Sun 08:58:33 PM 37.7203 -91.5286 32° Northeast 474 545 35,000  Level Kansas City Center
Sun 08:59:36 PM 37.8306 -91.4342 34° Northeast 477 549 35,000  Level Kansas City Center
Sun 09:00:36 PM 37.9294 -91.3286 40° Northeast 475 547 35,000  Level Kansas City Center
Sun 09:01:40 PM 38.0436 -91.2394 32° Northeast 477 549 35,000  Level Kansas City Center
Sun 09:02:39 PM 38.1492 -91.1375 37° Northeast 481 554 35,000  Level Kansas City Center
Sun 09:03:43 PM 38.2542 -91.0397 36° Northeast 481 554 35,000  Level Kansas City Center
Sun 09:04:42 PM 38.3656 -90.9525 32° Northeast 471 542 35,000  Level Kansas City Center
Sun 09:05:46 PM 38.4908 -90.8239 39° Northeast 478 550 35,000  Level Kansas City Center
Sun 09:06:48 PM 38.6003 -90.7275 35° Northeast 475 547 35,000  Level Kansas City Center
Sun 09:07:49 PM 38.7125 -90.6344 33° Northeast 473 544 35,000  Level Kansas City Center
Sun 09:08:51 PM 38.8161 -90.5250 39° Northeast 478 550 35,000  Level Kansas City Center
Sun 09:09:52 PM 38.9453 -90.4553 23° Northeast 460 529 35,000  Level Kansas City Center
Sun 09:10:52 PM 39.0614 -90.4053 18° North 459 528 35,000  Level Kansas City Center
Sun 09:11:56 PM 39.1856 -90.3494 19° North 467 537 35,000  Level Kansas City Center
Sun 09:12:56 PM 39.3111 -90.3128 13° North 465 535 35,000  Level Kansas City Center
Sun 09:13:57 PM 39.4356 -90.2592 18° North 468 539 35,000  Level Kansas City Center
Sun 09:15:01 PM 39.5589 -90.1994 20° North 472 543 35,000  Level Kansas City Center
Sun 09:16:01 PM 39.7125 -90.1544 13° North 473 544 35,000  Level Kansas City Center
Sun 09:17:04 PM 39.8175 -90.1039 20° North 475 547 35,000  Level Kansas City Center
Sun 09:18:04 PM 39.9708 -90.0386 18° North 483 556 35,000  Level Chicago Center
Sun 09:19:06 PM 40.1011 -89.9958 14° North 484 557 35,000  Level Chicago Center
Sun 09:20:08 PM 40.2275 -89.9311 21° North 487 560 35,000  Level Chicago Center
Sun 09:21:10 PM 40.3581 -89.8817 16° North 486 559 35,000 -48 Level Chicago Center
Sun 09:22:12 PM 40.5081 -89.8253 16° North 486 559 34,900 -387 Descending Chicago Center
Sun 09:23:14 PM 40.6342 -89.7586 22° Northeast 488 562 34,200 -1,306 Descending Chicago Center
Sun 09:24:16 PM 40.7622 -89.7131 15° North 477 549 32,200 -1,561 Descending Chicago Center
Sun 09:25:17 PM 40.8864 -89.6711 14° North 465 535 31,000 -585 Descending Chicago Center
Sun 09:26:19 PM 41.0011 -89.6100 22° Northeast 456 525 31,000 -677 Level Chicago Center
Sun 09:27:21 PM 41.1239 -89.5569 18° North 465 535 29,600 -2,323 Descending Chicago Center
Sun 09:28:23 PM 41.2792 -89.5017 15° North 481 554 26,200 -2,323 Descending Chicago Center
Sun 09:29:25 PM 41.3969 -89.4392 22° Northeast 461 531 24,800 -2,081 Descending Chicago Center
Sun 09:30:27 PM 41.5117 -89.3936 17° North 425 489 21,900 -2,780 Descending Chicago Center
Sun 09:31:28 PM 41.6156 -89.3461 19° North 402 463 19,100 -3,463 Descending Chicago Center
Sun 09:32:30 PM 41.7192 -89.2994 19° North 395 455 14,800 -4,065 Descending Chicago Center
Sun 09:33:32 PM 41.8303 -89.2650 13° North 405 466 10,700 -3,000 Descending Chicago Center
Sun 09:34:34 PM 41.9397 -89.2172 18° North 366 421 8,600 -2,195 Descending Chicago Center
Sun 09:35:35 PM 42.0217 -89.1856 16° North 325 374 6,200 -1,268 Descending Chicago Center
Sun 09:36:37 PM 42.1086 -89.1542 15° North 309 356 6,000 -97 Descending Chicago Center
Sun 09:37:39 PM 42.1958 -89.1292 12° North 316 364 6,000 -774 Level Chicago Center
Sun 09:38:41 PM 42.2781 -89.1281 North 300 345 4,400 -1,756 Descending Chicago Center
Sun 09:39:42 PM 42.3211 -89.0700 45° Northeast 260 299 2,400 -976 Descending Chicago Center
Sun 09:40:44 PM 42.2853 -89.0122 130° Southeast 252 290 2,400  Level Chicago Center

Login

Don't have an account? Register now (free) for customized features, flight alerts, and more!